createdAt,value
2023-04-15T00:00:56.908Z,7.32
2023-04-15T00:03:23.856Z,9.90
2023-04-15T00:05:50.748Z,7.35
2023-04-15T00:08:17.533Z,8.35
2023-04-15T00:10:44.309Z,11.98
2023-04-15T00:13:12.471Z,6.50
2023-04-15T00:15:39.142Z,8.80
2023-04-15T00:18:05.927Z,7.65
2023-04-15T00:20:33.117Z,7.90
2023-04-15T00:22:59.732Z,10.18
2023-04-15T00:25:26.496Z,7.05
2023-04-15T00:27:53.250Z,13.52
2023-04-15T00:30:21.537Z,6.90
2023-04-15T00:32:48.295Z,8.80
2023-04-15T00:35:17.488Z,7.78
2023-04-15T00:37:46.068Z,8.52
2023-04-15T00:40:13.922Z,11.57
2023-04-15T00:42:40.983Z,9.75
2023-04-15T00:45:08.979Z,12.57
2023-04-15T00:47:39.275Z,11.23
2023-04-15T00:50:07.605Z,14.38
2023-04-15T00:52:34.234Z,8.50
2023-04-15T00:55:01.183Z,12.18
2023-04-15T00:57:29.060Z,14.10
2023-04-15T00:59:56.512Z,8.70
2023-04-15T01:02:23.808Z,8.23
2023-04-15T01:04:52.159Z,11.00
2023-04-15T01:07:19.032Z,9.13
2023-04-15T01:09:45.825Z,10.55
2023-04-15T01:12:13.938Z,10.63
2023-04-15T01:14:40.731Z,5.80
2023-04-15T01:17:07.519Z,13.90
2023-04-15T01:19:34.600Z,9.65
2023-04-15T01:22:04.323Z,15.40
2023-04-15T01:24:32.195Z,10.45
2023-04-15T01:27:00.236Z,9.00
2023-04-15T01:29:26.936Z,16.40
2023-04-15T01:31:55.565Z,17.00
2023-04-15T01:34:22.798Z,15.38
2023-04-15T01:36:53.498Z,13.05
2023-04-15T01:39:21.679Z,12.35
2023-04-15T01:41:48.658Z,16.35
2023-04-15T01:44:17.608Z,17.00
2023-04-15T01:46:44.486Z,10.10
2023-04-15T01:49:11.156Z,18.15
2023-04-15T01:51:37.825Z,9.98
2023-04-15T01:54:06.372Z,12.55
2023-04-15T01:56:33.293Z,13.35
2023-04-15T01:59:00.110Z,12.10
2023-04-15T02:01:28.890Z,10.05
2023-04-15T02:03:58.457Z,10.23
2023-04-15T02:06:25.249Z,8.98
2023-04-15T02:08:52.015Z,7.70
2023-04-15T02:11:18.925Z,9.30
2023-04-15T02:13:46.324Z,9.27
2023-04-15T02:16:16.796Z,13.10
2023-04-15T02:18:46.305Z,13.23
2023-04-15T02:21:13.230Z,9.30
2023-04-15T02:23:40.016Z,9.43
2023-04-15T02:26:07.315Z,12.38
2023-04-15T02:28:34.044Z,13.43
2023-04-15T02:31:00.943Z,11.77
2023-04-15T02:33:27.642Z,14.65
2023-04-15T02:35:55.578Z,11.88
2023-04-15T02:38:22.362Z,10.93
2023-04-15T02:40:49.016Z,12.43
2023-04-15T02:43:15.861Z,9.32
2023-04-15T02:45:42.598Z,14.32
2023-04-15T02:48:09.479Z,10.38
2023-04-15T02:50:36.543Z,16.08
2023-04-15T02:53:04.562Z,19.23
2023-04-15T02:55:31.473Z,10.95
2023-04-15T02:57:58.318Z,13.02
2023-04-15T03:00:25.032Z,15.63
2023-04-15T03:02:52.444Z,20.73
2023-04-15T03:05:19.420Z,16.25
2023-04-15T03:07:49.550Z,11.25
2023-04-15T03:10:18.060Z,14.30
2023-04-15T03:12:46.201Z,14.82
2023-04-15T03:15:17.476Z,20.13
2023-04-15T03:17:47.625Z,17.70
2023-04-15T03:20:14.371Z,15.80
2023-04-15T03:22:41.145Z,15.60
2023-04-15T03:25:09.150Z,16.60
2023-04-15T03:27:38.811Z,14.43
2023-04-15T03:30:07.202Z,12.50
2023-04-15T03:32:36.616Z,14.27
2023-04-15T03:35:03.609Z,15.38
2023-04-15T03:37:30.274Z,10.52
2023-04-15T03:39:56.894Z,18.33
2023-04-15T03:42:23.683Z,13.63
2023-04-15T03:44:52.199Z,16.55
2023-04-15T03:47:19.051Z,12.60
2023-04-15T03:49:45.771Z,13.88
2023-04-15T03:52:12.495Z,10.85
2023-04-15T03:54:39.154Z,14.13
2023-04-15T03:57:06.026Z,15.20
2023-04-15T03:59:32.813Z,15.90
2023-04-15T04:02:00.920Z,16.33
2023-04-15T04:04:27.741Z,15.32
2023-04-15T04:06:54.583Z,15.25
2023-04-15T04:09:21.406Z,15.02
2023-04-15T04:11:48.091Z,16.67
2023-04-15T04:14:14.834Z,17.80
2023-04-15T04:16:42.841Z,15.23
2023-04-15T04:19:11.052Z,13.05
2023-04-15T04:21:37.810Z,13.10
2023-04-15T04:24:04.838Z,18.15
2023-04-15T04:26:31.579Z,15.90
2023-04-15T04:28:58.385Z,14.30
2023-04-15T04:31:25.366Z,18.80
2023-04-15T04:33:52.119Z,14.77
2023-04-15T04:36:20.386Z,15.82
2023-04-15T04:38:47.039Z,19.98
2023-04-15T04:41:13.699Z,16.20
2023-04-15T04:43:40.491Z,15.23
2023-04-15T04:46:07.346Z,16.17
2023-04-15T04:48:34.064Z,13.77
2023-04-15T04:51:00.829Z,17.52
2023-04-15T04:53:28.893Z,20.95
2023-04-15T04:55:55.618Z,18.77
2023-04-15T04:58:22.357Z,13.85
2023-04-15T05:00:49.283Z,14.77
2023-04-15T05:03:16.264Z,13.82
2023-04-15T05:05:43.165Z,16.05
2023-04-15T05:08:09.836Z,15.25
2023-04-15T05:10:37.930Z,12.00
2023-04-15T05:13:04.589Z,15.15
2023-04-15T05:15:31.334Z,15.18
2023-04-15T05:17:58.173Z,11.98
2023-04-15T05:20:24.976Z,16.15
2023-04-15T05:22:51.721Z,15.05
2023-04-15T05:25:18.700Z,14.82
2023-04-15T05:27:46.868Z,17.15
2023-04-15T05:30:13.818Z,14.75
2023-04-15T05:32:40.688Z,14.13
2023-04-15T05:35:07.888Z,17.38
2023-04-15T05:37:34.785Z,17.00
2023-04-15T05:40:02.737Z,11.70
2023-04-15T05:42:29.458Z,11.10
2023-04-15T05:44:57.599Z,15.43
2023-04-15T05:47:24.293Z,16.38
2023-04-15T05:49:50.991Z,12.05
2023-04-15T05:52:17.708Z,16.50
2023-04-15T05:54:44.455Z,13.40
2023-04-15T05:57:11.093Z,13.80
2023-04-15T05:59:37.838Z,13.65
2023-04-15T06:02:06.468Z,12.48
2023-04-15T06:04:33.333Z,15.35
2023-04-15T06:07:00.118Z,15.65
2023-04-15T06:09:26.946Z,15.55
2023-04-15T06:11:53.717Z,12.27
2023-04-15T06:14:20.457Z,12.98
2023-04-15T06:16:47.117Z,15.85
2023-04-15T06:19:15.166Z,16.08
2023-04-15T06:21:42.000Z,13.07
2023-04-15T06:24:08.700Z,14.18
2023-04-15T06:26:35.464Z,12.02
2023-04-15T06:29:02.238Z,14.80
2023-04-15T06:31:29.183Z,20.02
2023-04-15T06:33:55.980Z,15.98
2023-04-15T06:36:24.050Z,13.75
2023-04-15T06:38:50.718Z,13.10
2023-04-15T06:41:18.255Z,15.60
2023-04-15T06:43:45.099Z,13.20
2023-04-15T06:46:11.897Z,14.05
2023-04-15T06:48:38.588Z,13.45
2023-04-15T06:51:08.105Z,13.45
2023-04-15T06:53:37.688Z,12.30
2023-04-15T06:56:04.782Z,13.80
2023-04-15T06:58:31.379Z,10.82
2023-04-15T07:00:58.104Z,14.10
2023-04-15T07:03:24.949Z,11.93
2023-04-15T07:05:51.733Z,13.27
2023-04-15T07:08:19.158Z,14.23
2023-04-15T07:10:47.712Z,12.32
2023-04-15T07:13:14.462Z,16.42
2023-04-15T07:15:41.154Z,11.77
2023-04-15T07:18:07.774Z,15.77
2023-04-15T07:20:34.377Z,14.15
2023-04-15T07:23:01.070Z,15.30
2023-04-15T07:25:27.930Z,11.35
2023-04-15T07:27:56.062Z,10.90
2023-04-15T07:30:22.742Z,13.07
2023-04-15T07:32:49.556Z,13.93
2023-04-15T07:35:16.452Z,13.05
2023-04-15T07:37:43.098Z,11.10
2023-04-15T07:40:10.788Z,13.93
2023-04-15T07:42:39.393Z,12.02
2023-04-15T07:45:09.749Z,11.85
2023-04-15T07:47:36.539Z,10.98
2023-04-15T07:50:03.501Z,15.52
2023-04-15T07:52:30.116Z,10.27
2023-04-15T07:54:56.738Z,13.02
2023-04-15T07:57:23.452Z,11.00
2023-04-15T07:59:50.247Z,11.70
2023-04-15T08:02:18.847Z,10.88
2023-04-15T08:04:45.669Z,10.20
2023-04-15T08:07:12.385Z,10.50
2023-04-15T08:09:39.104Z,10.85
2023-04-15T08:12:06.252Z,10.85
2023-04-15T08:14:33.033Z,11.82
2023-04-15T08:16:59.918Z,10.77
2023-04-15T08:19:28.184Z,8.40
2023-04-15T08:21:55.175Z,11.15
2023-04-15T08:24:21.944Z,7.10
2023-04-15T08:26:48.643Z,9.15
2023-04-15T08:29:15.398Z,8.57
2023-04-15T08:31:42.145Z,8.10
2023-04-15T08:34:08.886Z,6.43
2023-04-15T08:36:37.461Z,6.10
2023-04-15T08:39:04.311Z,5.45
2023-04-15T08:41:39.664Z,5.88
2023-04-15T08:44:06.808Z,5.70
2023-04-15T08:46:33.882Z,5.50
2023-04-15T08:49:04.547Z,5.47
2023-04-15T08:51:32.290Z,6.28
2023-04-15T08:54:00.785Z,9.93
2023-04-15T08:56:30.927Z,6.22
2023-04-15T08:59:01.170Z,7.30
2023-04-15T09:01:28.545Z,5.32
2023-04-15T09:03:56.584Z,5.43
2023-04-15T09:06:23.865Z,5.40
2023-04-15T09:08:52.739Z,5.53
2023-04-15T09:11:21.935Z,4.75
2023-04-15T09:13:49.115Z,5.18
2023-04-15T09:16:15.918Z,6.65
2023-04-15T09:18:43.283Z,6.47
2023-04-15T09:21:11.490Z,5.03
2023-04-15T09:23:40.012Z,4.47
2023-04-15T09:26:07.855Z,4.90
2023-04-15T09:28:42.146Z,3.25
2023-04-15T09:31:08.853Z,3.33
2023-04-15T09:33:35.636Z,3.28
2023-04-15T09:36:04.985Z,2.55
2023-04-15T09:38:32.414Z,3.40
2023-04-15T09:41:00.001Z,2.75
2023-04-15T09:43:39.831Z,2.67
2023-04-15T09:46:08.802Z,2.97
2023-04-15T09:48:37.118Z,2.42
2023-04-15T09:51:04.153Z,3.63
2023-04-15T09:53:34.412Z,3.67
2023-04-15T09:56:01.408Z,3.63
2023-04-15T09:58:29.449Z,3.25
2023-04-15T10:00:58.822Z,3.67
2023-04-15T10:03:27.274Z,4.60
2023-04-15T10:05:59.070Z,3.53
2023-04-15T10:08:28.363Z,3.22
2023-04-15T10:10:55.682Z,3.30
2023-04-15T10:13:24.504Z,2.97
2023-04-15T10:15:56.000Z,3.38
2023-04-15T10:18:27.622Z,3.05
2023-04-15T10:20:54.991Z,2.72
2023-04-15T10:23:23.153Z,3.10
2023-04-15T10:25:52.553Z,3.80
2023-04-15T10:28:20.120Z,3.40
2023-04-15T10:30:47.030Z,2.92
2023-04-15T10:33:15.566Z,3.25
2023-04-15T10:35:44.993Z,3.15
2023-04-15T10:38:33.354Z,3.03
2023-04-15T10:41:13.135Z,3.40
2023-04-15T10:43:40.203Z,3.40
2023-04-15T10:46:07.419Z,3.33
2023-04-15T10:48:34.095Z,3.28
2023-04-15T10:51:02.187Z,2.50
2023-04-15T10:53:29.667Z,2.58
2023-04-15T10:55:57.233Z,3.97
2023-04-15T10:58:24.745Z,2.58
2023-04-15T11:00:53.813Z,2.42
2023-04-15T11:03:37.670Z,2.20
2023-04-15T11:06:06.602Z,2.08
2023-04-15T11:08:59.004Z,2.05
2023-04-15T11:14:16.090Z,2.28
2023-04-15T11:16:43.152Z,2.55
2023-04-15T11:19:09.879Z,2.75
2023-04-15T11:21:38.174Z,2.30
2023-04-15T11:24:05.245Z,3.85
2023-04-15T11:26:34.613Z,2.22
2023-04-15T11:29:01.306Z,2.50
2023-04-15T11:31:28.330Z,2.75
2023-04-15T11:33:56.963Z,3.17
2023-04-15T11:36:26.986Z,2.80
2023-04-15T11:38:55.612Z,3.22
2023-04-15T11:41:22.516Z,3.08
2023-04-15T11:43:49.644Z,3.08
2023-04-15T11:46:16.692Z,3.00
2023-04-15T11:48:45.028Z,3.20
2023-04-15T11:51:13.063Z,4.28
2023-04-15T11:53:41.391Z,3.00
2023-04-15T11:56:11.543Z,2.20
2023-04-15T11:58:38.675Z,1.90
2023-04-15T12:01:06.566Z,2.45
2023-04-15T12:03:38.233Z,2.65
2023-04-15T12:06:07.223Z,3.70
2023-04-15T12:08:58.470Z,2.53
2023-04-15T12:11:32.123Z,2.67
2023-04-15T12:14:03.083Z,2.15
2023-04-15T12:16:30.124Z,1.97
2023-04-15T12:18:58.660Z,2.30
2023-04-15T12:21:26.966Z,2.83
2023-04-15T12:23:55.888Z,1.73
2023-04-15T12:26:29.869Z,2.47
2023-04-15T12:29:01.147Z,2.13
2023-04-15T12:31:27.991Z,1.75
2023-04-15T12:33:55.524Z,3.55
2023-04-15T12:36:22.374Z,2.90
2023-04-15T12:38:49.201Z,3.70
2023-04-15T12:41:16.222Z,4.25
2023-04-15T12:43:44.754Z,1.63
2023-04-15T12:46:13.767Z,2.78
2023-04-15T12:48:40.490Z,2.17
2023-04-15T12:51:07.472Z,3.65
2023-04-15T12:53:34.158Z,1.88
2023-04-15T12:56:00.931Z,1.80
2023-04-15T12:58:27.968Z,1.83
2023-04-15T13:00:54.690Z,3.17
2023-04-15T13:03:23.028Z,1.73
2023-04-15T13:05:49.888Z,2.63
2023-04-15T13:08:16.527Z,1.17
2023-04-15T13:10:43.491Z,1.10
2023-04-15T13:13:10.140Z,1.20
2023-04-15T13:15:37.171Z,1.10
2023-04-15T13:18:05.252Z,1.58
2023-04-15T13:20:33.414Z,2.60
2023-04-15T13:23:00.130Z,1.83
2023-04-15T13:25:26.697Z,1.67
2023-04-15T13:27:53.317Z,1.08
2023-04-15T13:30:20.142Z,1.27
2023-04-15T13:32:48.680Z,1.63
2023-04-15T13:35:16.697Z,1.95
2023-04-15T13:37:44.781Z,2.08
2023-04-15T13:40:11.816Z,1.92
2023-04-15T13:42:38.540Z,1.63
2023-04-15T13:45:06.336Z,1.30
2023-04-15T13:47:33.092Z,1.75
2023-04-15T13:49:59.812Z,1.42
2023-04-15T13:52:26.418Z,1.33
2023-04-15T13:55:08.772Z,0.98
2023-04-15T13:57:41.135Z,1.67
2023-04-15T14:00:08.956Z,1.27
2023-04-15T14:02:35.759Z,1.30
2023-04-15T14:05:02.554Z,3.05
2023-04-15T14:07:30.068Z,1.27
2023-04-15T14:09:58.138Z,1.52
2023-04-15T14:12:24.876Z,1.00
2023-04-15T14:14:51.699Z,2.28
2023-04-15T14:17:18.496Z,1.08
2023-04-15T14:19:45.211Z,2.15
2023-04-15T14:22:11.939Z,1.15
2023-04-15T14:24:38.566Z,1.42
2023-04-15T14:27:06.911Z,1.00
2023-04-15T14:29:33.798Z,1.17
2023-04-15T14:32:10.888Z,1.00
2023-04-15T14:34:39.335Z,1.70
2023-04-15T14:37:06.144Z,1.25
2023-04-15T14:39:32.988Z,0.98
2023-04-15T14:41:59.866Z,2.95
2023-04-15T14:44:27.986Z,0.70
2023-04-15T14:46:54.706Z,1.60
2023-04-15T14:49:21.403Z,1.75
2023-04-15T14:51:48.213Z,4.65
2023-04-15T14:54:17.678Z,0.90
2023-04-15T14:56:44.402Z,1.77
2023-04-15T14:59:11.179Z,1.63
2023-04-15T15:01:39.521Z,1.33
2023-04-15T15:04:06.562Z,3.75
2023-04-15T15:06:33.277Z,2.03
2023-04-15T15:08:59.879Z,2.10
2023-04-15T15:11:26.678Z,1.88
2023-04-15T15:13:53.304Z,1.55
2023-04-15T15:16:19.992Z,1.08
2023-04-15T15:18:48.230Z,1.08
2023-04-15T15:21:14.959Z,1.15
2023-04-15T15:23:41.624Z,1.83
2023-04-15T15:26:08.670Z,1.63
2023-04-15T15:28:35.431Z,0.82
2023-04-15T15:31:02.140Z,3.10
2023-04-15T15:33:30.235Z,2.03
2023-04-15T15:35:59.093Z,1.02
2023-04-15T15:38:25.794Z,2.85
2023-04-15T15:40:52.462Z,1.48
2023-04-15T15:43:19.185Z,1.52
2023-04-15T15:45:45.950Z,0.98
2023-04-15T15:48:12.687Z,3.20
2023-04-15T15:50:39.591Z,1.98
2023-04-15T15:53:07.746Z,1.55
2023-04-15T15:55:34.376Z,0.93
2023-04-15T15:58:00.986Z,1.05
2023-04-15T16:00:27.620Z,0.50
2023-04-15T16:03:06.568Z,1.85
2023-04-15T16:05:33.763Z,2.55
2023-04-15T16:08:00.461Z,1.75
2023-04-15T16:10:28.609Z,0.68
2023-04-15T16:12:55.471Z,0.90
2023-04-15T16:15:22.731Z,1.48
2023-04-15T16:17:49.500Z,2.25
2023-04-15T16:20:16.324Z,0.85
2023-04-15T16:22:43.030Z,0.95
2023-04-15T16:25:09.862Z,1.05
2023-04-15T16:27:53.776Z,1.90
2023-04-15T16:30:24.284Z,1.00
2023-04-15T16:32:51.651Z,1.27
2023-04-15T16:35:18.637Z,1.60
2023-04-15T16:37:45.363Z,2.10
2023-04-15T16:40:12.648Z,1.33
2023-04-15T16:42:40.843Z,1.98
2023-04-15T16:45:08.034Z,2.83
2023-04-15T16:47:34.871Z,5.32
2023-04-15T16:50:01.836Z,2.03
2023-04-15T16:52:28.782Z,4.28
2023-04-15T16:54:56.262Z,2.53
2023-04-15T16:57:23.027Z,3.95
2023-04-15T16:59:52.712Z,2.05
2023-04-15T17:02:20.866Z,1.63
2023-04-15T17:04:47.655Z,2.67
2023-04-15T17:07:14.343Z,2.00
2023-04-15T17:09:40.978Z,1.25
2023-04-15T17:12:08.257Z,2.08
2023-04-15T17:14:35.205Z,1.50
2023-04-15T17:17:03.559Z,2.38
2023-04-15T17:19:30.305Z,1.65
2023-04-15T17:21:57.150Z,3.58
2023-04-15T17:24:24.298Z,3.08
2023-04-15T17:26:51.150Z,3.63
2023-04-15T17:29:17.993Z,4.55
2023-04-15T17:31:44.729Z,2.83
2023-04-15T17:34:15.260Z,6.00
2023-04-15T17:36:43.071Z,7.33
2023-04-15T17:39:13.026Z,4.45
2023-04-15T17:41:42.231Z,4.10
2023-04-15T17:44:09.070Z,4.57
2023-04-15T17:46:36.263Z,3.22
2023-04-15T17:49:03.480Z,7.28
2023-04-15T17:51:31.966Z,3.45
2023-04-15T17:54:07.467Z,3.58
2023-04-15T17:56:34.702Z,4.60
2023-04-15T17:59:01.706Z,3.50
2023-04-15T18:01:28.498Z,4.82
2023-04-15T18:03:55.413Z,4.57
2023-04-15T18:06:22.177Z,5.22
2023-04-15T18:08:51.285Z,5.95
2023-04-15T18:11:17.907Z,4.28
2023-04-15T18:13:44.497Z,3.92
2023-04-15T18:16:11.106Z,2.95
2023-04-15T18:18:37.687Z,5.93
2023-04-15T18:21:04.709Z,4.78
2023-04-15T18:23:31.415Z,3.83
2023-04-15T18:25:59.445Z,5.43
2023-04-15T18:28:26.146Z,4.68
2023-04-15T18:30:53.501Z,9.80
2023-04-15T18:33:20.047Z,9.05
2023-04-15T18:35:48.099Z,4.25
2023-04-15T18:38:16.083Z,6.88
2023-04-15T18:40:42.626Z,6.45
2023-04-15T18:43:10.589Z,4.47
2023-04-15T18:45:37.240Z,5.40
2023-04-15T18:48:04.533Z,6.30
2023-04-15T18:50:31.309Z,6.00
2023-04-15T18:52:57.944Z,8.48
2023-04-15T18:55:24.536Z,4.65
2023-04-15T18:57:51.323Z,4.07
2023-04-15T19:00:19.417Z,6.60
2023-04-15T19:02:46.177Z,2.90
2023-04-15T19:05:12.874Z,5.03
2023-04-15T19:07:39.576Z,7.68
2023-04-15T19:10:07.080Z,6.35
2023-04-15T19:12:33.875Z,4.50
2023-04-15T19:15:00.414Z,13.05
2023-04-15T19:17:28.398Z,5.28
2023-04-15T19:19:55.008Z,9.20
2023-04-15T19:22:21.751Z,8.73
2023-04-15T19:24:48.362Z,6.47
2023-04-15T19:27:14.993Z,7.90
2023-04-15T19:29:41.638Z,5.47
2023-04-15T19:32:08.490Z,4.32
2023-04-15T19:34:36.512Z,9.32
2023-04-15T19:37:03.084Z,7.68
2023-04-15T19:39:29.762Z,7.07
2023-04-15T19:41:56.362Z,8.30
2023-04-15T19:44:22.914Z,7.75
2023-04-15T19:46:49.526Z,8.93
2023-04-15T19:49:16.205Z,11.70
2023-04-15T19:51:44.201Z,6.50
2023-04-15T19:54:10.813Z,6.13
2023-04-15T19:56:37.448Z,7.03
2023-04-15T19:59:04.458Z,8.90
2023-04-15T20:01:31.732Z,6.65
2023-04-15T20:03:58.712Z,7.70
2023-04-15T20:06:25.755Z,6.10
2023-04-15T20:08:53.831Z,7.82
2023-04-15T20:11:20.412Z,7.65
2023-04-15T20:13:47.045Z,5.80
2023-04-15T20:16:13.729Z,8.00
2023-04-15T20:18:40.609Z,10.95
2023-04-15T20:21:07.269Z,9.20
2023-04-15T20:23:33.857Z,7.60
2023-04-15T20:26:01.798Z,5.60
2023-04-15T20:28:28.428Z,7.35
2023-04-15T20:30:55.227Z,8.23
2023-04-15T20:33:22.036Z,5.05
2023-04-15T20:35:48.621Z,8.57
2023-04-15T20:38:15.197Z,7.00
2023-04-15T20:40:41.985Z,4.45
2023-04-15T20:43:10.073Z,7.47
2023-04-15T20:45:36.675Z,8.30
2023-04-15T20:48:03.694Z,7.30
2023-04-15T20:50:30.420Z,8.05
2023-04-15T20:52:57.065Z,9.27
2023-04-15T20:55:23.681Z,6.60
2023-04-15T20:57:50.386Z,9.23
2023-04-15T21:00:18.416Z,6.25
2023-04-15T21:02:45.049Z,6.55
2023-04-15T21:05:11.954Z,7.38
2023-04-15T21:07:38.574Z,5.15
2023-04-15T21:10:06.200Z,7.88
2023-04-15T21:12:32.774Z,4.63
2023-04-15T21:14:59.347Z,6.32
2023-04-15T21:17:27.337Z,8.57
2023-04-15T21:19:53.994Z,6.00
2023-04-15T21:22:20.606Z,5.60
2023-04-15T21:24:47.226Z,7.03
2023-04-15T21:27:13.760Z,6.68
2023-04-15T21:29:40.286Z,8.48
2023-04-15T21:32:06.941Z,7.35
2023-04-15T21:34:34.954Z,6.25
2023-04-15T21:37:01.825Z,9.82
2023-04-15T21:39:28.459Z,11.80
2023-04-15T21:41:55.837Z,4.60
2023-04-15T21:44:22.441Z,5.97
2023-04-15T21:46:49.054Z,7.95
2023-04-15T21:49:15.838Z,5.15
2023-04-15T21:51:43.734Z,7.85
2023-04-15T21:54:10.386Z,7.07
2023-04-15T21:56:37.134Z,3.50
2023-04-15T21:59:03.980Z,12.00
2023-04-15T22:01:30.989Z,15.43
2023-04-15T22:03:57.934Z,8.77
2023-04-15T22:06:24.724Z,28.45
2023-04-15T22:08:57.602Z,12.13
2023-04-15T22:11:24.973Z,11.02
2023-04-15T22:13:51.691Z,10.43
2023-04-15T22:16:18.280Z,6.75
2023-04-15T22:18:44.992Z,9.90
2023-04-15T22:21:12.145Z,8.30
2023-04-15T22:23:38.683Z,9.75
2023-04-15T22:26:07.091Z,9.23
2023-04-15T22:28:33.737Z,10.40
2023-04-15T22:31:00.351Z,9.15
2023-04-15T22:33:26.970Z,11.07
2023-04-15T22:35:53.572Z,12.07
2023-04-15T22:38:20.246Z,10.50
2023-04-15T22:40:46.886Z,9.35
2023-04-15T22:43:15.039Z,11.38
2023-04-15T22:45:41.660Z,5.85
2023-04-15T22:48:08.207Z,11.52
2023-04-15T22:50:37.010Z,7.35
2023-04-15T22:53:03.550Z,8.80
2023-04-15T22:55:30.133Z,8.25
2023-04-15T22:57:56.716Z,8.60
2023-04-15T23:00:24.652Z,6.97
2023-04-15T23:02:51.307Z,9.27
2023-04-15T23:05:18.145Z,9.52
2023-04-15T23:07:44.757Z,10.20
2023-04-15T23:10:11.385Z,14.73
2023-04-15T23:12:37.903Z,8.93
2023-04-15T23:15:05.201Z,9.60
2023-04-15T23:17:33.228Z,9.38
2023-04-15T23:19:59.805Z,11.75
2023-04-15T23:22:26.366Z,6.05
2023-04-15T23:24:52.956Z,6.35
2023-04-15T23:27:19.846Z,7.53
2023-04-15T23:29:46.524Z,8.68
2023-04-15T23:32:13.222Z,5.90
2023-04-15T23:34:41.180Z,7.05
2023-04-15T23:37:07.916Z,9.07
2023-04-15T23:39:34.495Z,10.10
2023-04-15T23:42:01.183Z,6.07
2023-04-15T23:44:27.734Z,6.25
2023-04-15T23:46:54.446Z,8.32
2023-04-15T23:49:21.184Z,8.52
2023-04-15T23:51:49.270Z,11.95
2023-04-15T23:54:15.896Z,6.45
2023-04-15T23:56:42.618Z,10.27
2023-04-15T23:59:09.472Z,9.93
